sensor_id;sensor_type;location;lat;lon;timestamp;P1;durP1;ratioP1;P2;durP2;ratioP2
76608;SDS011;65928;53.936;27.540;2024-02-15T00:00:26;5.38;;;2.88;;
76608;SDS011;65928;53.936;27.540;2024-02-15T00:02:52;5.15;;;3.13;;
76608;SDS011;65928;53.936;27.540;2024-02-15T00:05:17;5.57;;;2.88;;
76608;SDS011;65928;53.936;27.540;2024-02-15T00:07:43;6.05;;;2.90;;
76608;SDS011;65928;53.936;27.540;2024-02-15T00:10:09;4.38;;;2.42;;
76608;SDS011;65928;53.936;27.540;2024-02-15T00:12:34;4.30;;;2.58;;
76608;SDS011;65928;53.936;27.540;2024-02-15T00:15:00;5.28;;;3.30;;
76608;SDS011;65928;53.936;27.540;2024-02-15T00:17:27;4.70;;;3.17;;
76608;SDS011;65928;53.936;27.540;2024-02-15T00:19:54;4.10;;;2.88;;
76608;SDS011;65928;53.936;27.540;2024-02-15T00:22:20;4.40;;;2.67;;
76608;SDS011;65928;53.936;27.540;2024-02-15T00:24:46;5.03;;;2.78;;
76608;SDS011;65928;53.936;27.540;2024-02-15T00:27:13;5.88;;;2.83;;
76608;SDS011;65928;53.936;27.540;2024-02-15T00:29:42;3.92;;;2.40;;
76608;SDS011;65928;53.936;27.540;2024-02-15T00:32:08;7.18;;;4.22;;
76608;SDS011;65928;53.936;27.540;2024-02-15T00:34:35;6.85;;;3.90;;
76608;SDS011;65928;53.936;27.540;2024-02-15T00:37:04;4.85;;;2.83;;
76608;SDS011;65928;53.936;27.540;2024-02-15T00:39:30;4.40;;;2.70;;
76608;SDS011;65928;53.936;27.540;2024-02-15T00:41:56;5.35;;;3.13;;
76608;SDS011;65928;53.936;27.540;2024-02-15T00:44:22;6.75;;;3.28;;
76608;SDS011;65928;53.936;27.540;2024-02-15T00:46:47;4.28;;;2.63;;
76608;SDS011;65928;53.936;27.540;2024-02-15T00:49:13;4.07;;;2.83;;
76608;SDS011;65928;53.936;27.540;2024-02-15T00:51:38;4.22;;;2.70;;
76608;SDS011;65928;53.936;27.540;2024-02-15T00:54:03;5.32;;;2.72;;
76608;SDS011;65928;53.936;27.540;2024-02-15T00:56:29;5.07;;;2.75;;
76608;SDS011;65928;53.936;27.540;2024-02-15T00:58:56;3.08;;;1.73;;
76608;SDS011;65928;53.936;27.540;2024-02-15T01:01:21;8.38;;;3.42;;
76608;SDS011;65928;53.936;27.540;2024-02-15T01:03:47;5.20;;;3.10;;
76608;SDS011;65928;53.936;27.540;2024-02-15T01:06:12;4.03;;;2.35;;
76608;SDS011;65928;53.936;27.540;2024-02-15T01:08:37;5.43;;;3.22;;
76608;SDS011;65928;53.936;27.540;2024-02-15T01:11:04;4.95;;;2.50;;
76608;SDS011;65928;53.936;27.540;2024-02-15T01:13:29;5.50;;;3.50;;
76608;SDS011;65928;53.936;27.540;2024-02-15T01:15:55;4.75;;;3.40;;
76608;SDS011;65928;53.936;27.540;2024-02-15T01:18:20;4.38;;;3.00;;
76608;SDS011;65928;53.936;27.540;2024-02-15T01:20:46;5.07;;;2.63;;
76608;SDS011;65928;53.936;27.540;2024-02-15T01:23:11;5.25;;;3.33;;
76608;SDS011;65928;53.936;27.540;2024-02-15T01:25:37;4.70;;;3.08;;
76608;SDS011;65928;53.936;27.540;2024-02-15T01:28:02;5.82;;;3.53;;
76608;SDS011;65928;53.936;27.540;2024-02-15T01:30:28;5.45;;;3.28;;
76608;SDS011;65928;53.936;27.540;2024-02-15T01:32:54;5.07;;;3.05;;
76608;SDS011;65928;53.936;27.540;2024-02-15T01:35:19;4.22;;;2.88;;
76608;SDS011;65928;53.936;27.540;2024-02-15T01:37:45;5.03;;;3.15;;
76608;SDS011;65928;53.936;27.540;2024-02-15T01:40:11;4.28;;;2.75;;
76608;SDS011;65928;53.936;27.540;2024-02-15T01:42:38;4.30;;;2.85;;
76608;SDS011;65928;53.936;27.540;2024-02-15T01:45:04;5.85;;;3.28;;
76608;SDS011;65928;53.936;27.540;2024-02-15T01:47:30;5.95;;;3.20;;
76608;SDS011;65928;53.936;27.540;2024-02-15T01:49:55;4.03;;;2.83;;
76608;SDS011;65928;53.936;27.540;2024-02-15T01:52:21;6.35;;;4.82;;
76608;SDS011;65928;53.936;27.540;2024-02-15T01:54:47;5.82;;;3.50;;
76608;SDS011;65928;53.936;27.540;2024-02-15T01:57:13;4.18;;;2.90;;
76608;SDS011;65928;53.936;27.540;2024-02-15T01:59:39;7.50;;;4.68;;
76608;SDS011;65928;53.936;27.540;2024-02-15T02:02:04;4.35;;;3.15;;
76608;SDS011;65928;53.936;27.540;2024-02-15T02:04:33;5.20;;;3.55;;
76608;SDS011;65928;53.936;27.540;2024-02-15T02:06:59;5.53;;;3.13;;
76608;SDS011;65928;53.936;27.540;2024-02-15T02:09:24;4.25;;;3.00;;
76608;SDS011;65928;53.936;27.540;2024-02-15T02:11:50;5.13;;;2.90;;
76608;SDS011;65928;53.936;27.540;2024-02-15T02:14:16;4.20;;;2.92;;
76608;SDS011;65928;53.936;27.540;2024-02-15T02:16:41;5.63;;;2.95;;
76608;SDS011;65928;53.936;27.540;2024-02-15T02:19:07;5.45;;;3.10;;
76608;SDS011;65928;53.936;27.540;2024-02-15T02:21:34;4.90;;;3.13;;
76608;SDS011;65928;53.936;27.540;2024-02-15T02:24:00;4.25;;;2.60;;
76608;SDS011;65928;53.936;27.540;2024-02-15T02:26:27;7.13;;;3.88;;
76608;SDS011;65928;53.936;27.540;2024-02-15T02:28:54;5.50;;;3.65;;
76608;SDS011;65928;53.936;27.540;2024-02-15T02:31:20;5.95;;;3.83;;
76608;SDS011;65928;53.936;27.540;2024-02-15T02:33:47;5.38;;;3.50;;
76608;SDS011;65928;53.936;27.540;2024-02-15T02:36:17;6.50;;;3.80;;
76608;SDS011;65928;53.936;27.540;2024-02-15T02:38:42;5.45;;;3.92;;
76608;SDS011;65928;53.936;27.540;2024-02-15T02:41:10;6.25;;;3.88;;
76608;SDS011;65928;53.936;27.540;2024-02-15T02:43:36;8.07;;;4.30;;
76608;SDS011;65928;53.936;27.540;2024-02-15T02:46:02;5.97;;;3.97;;
76608;SDS011;65928;53.936;27.540;2024-02-15T02:48:29;9.60;;;4.97;;
76608;SDS011;65928;53.936;27.540;2024-02-15T02:50:55;8.43;;;5.05;;
76608;SDS011;65928;53.936;27.540;2024-02-15T02:53:20;8.73;;;5.30;;
76608;SDS011;65928;53.936;27.540;2024-02-15T02:55:46;7.22;;;4.95;;
76608;SDS011;65928;53.936;27.540;2024-02-15T02:58:11;6.43;;;4.93;;
76608;SDS011;65928;53.936;27.540;2024-02-15T03:00:37;7.15;;;4.20;;
76608;SDS011;65928;53.936;27.540;2024-02-15T03:03:04;9.55;;;5.22;;
76608;SDS011;65928;53.936;27.540;2024-02-15T03:05:30;8.68;;;5.38;;
76608;SDS011;65928;53.936;27.540;2024-02-15T03:07:56;6.78;;;4.75;;
76608;SDS011;65928;53.936;27.540;2024-02-15T03:10:21;7.28;;;4.68;;
76608;SDS011;65928;53.936;27.540;2024-02-15T03:12:48;7.07;;;4.57;;
76608;SDS011;65928;53.936;27.540;2024-02-15T03:15:14;5.95;;;4.10;;
76608;SDS011;65928;53.936;27.540;2024-02-15T03:17:40;7.72;;;4.60;;
76608;SDS011;65928;53.936;27.540;2024-02-15T03:20:09;7.03;;;4.93;;
76608;SDS011;65928;53.936;27.540;2024-02-15T03:22:45;7.00;;;4.68;;
76608;SDS011;65928;53.936;27.540;2024-02-15T03:25:23;9.07;;;4.55;;
76608;SDS011;65928;53.936;27.540;2024-02-15T03:27:49;9.50;;;5.65;;
76608;SDS011;65928;53.936;27.540;2024-02-15T03:30:17;8.52;;;5.72;;
76608;SDS011;65928;53.936;27.540;2024-02-15T03:32:52;8.55;;;4.93;;
76608;SDS011;65928;53.936;27.540;2024-02-15T03:35:18;9.82;;;5.60;;
76608;SDS011;65928;53.936;27.540;2024-02-15T03:37:44;8.93;;;5.15;;
76608;SDS011;65928;53.936;27.540;2024-02-15T03:40:10;9.35;;;4.88;;
76608;SDS011;65928;53.936;27.540;2024-02-15T03:42:35;8.52;;;5.10;;
76608;SDS011;65928;53.936;27.540;2024-02-15T03:45:04;10.63;;;6.47;;
76608;SDS011;65928;53.936;27.540;2024-02-15T03:47:33;8.63;;;5.70;;
76608;SDS011;65928;53.936;27.540;2024-02-15T03:49:59;7.85;;;4.82;;
76608;SDS011;65928;53.936;27.540;2024-02-15T03:52:25;6.75;;;4.57;;
76608;SDS011;65928;53.936;27.540;2024-02-15T03:54:50;10.13;;;6.57;;
76608;SDS011;65928;53.936;27.540;2024-02-15T03:57:17;10.90;;;7.00;;
76608;SDS011;65928;53.936;27.540;2024-02-15T03:59:45;11.90;;;7.45;;
76608;SDS011;65928;53.936;27.540;2024-02-15T04:02:15;11.15;;;8.00;;
76608;SDS011;65928;53.936;27.540;2024-02-15T04:04:40;10.25;;;6.40;;
76608;SDS011;65928;53.936;27.540;2024-02-15T04:07:08;13.23;;;8.27;;
76608;SDS011;65928;53.936;27.540;2024-02-15T04:09:33;24.75;;;17.40;;
76608;SDS011;65928;53.936;27.540;2024-02-15T04:12:00;15.25;;;10.13;;
76608;SDS011;65928;53.936;27.540;2024-02-15T04:14:26;13.10;;;9.13;;
76608;SDS011;65928;53.936;27.540;2024-02-15T04:16:52;13.93;;;8.45;;
76608;SDS011;65928;53.936;27.540;2024-02-15T04:19:17;10.18;;;6.85;;
76608;SDS011;65928;53.936;27.540;2024-02-15T04:21:45;10.20;;;6.40;;
76608;SDS011;65928;53.936;27.540;2024-02-15T04:24:11;12.32;;;8.25;;
76608;SDS011;65928;53.936;27.540;2024-02-15T04:26:37;7.28;;;5.63;;
76608;SDS011;65928;53.936;27.540;2024-02-15T04:29:02;9.07;;;7.13;;
76608;SDS011;65928;53.936;27.540;2024-02-15T04:31:28;6.18;;;3.53;;
76608;SDS011;65928;53.936;27.540;2024-02-15T04:33:53;6.90;;;4.10;;
76608;SDS011;65928;53.936;27.540;2024-02-15T04:36:19;6.10;;;4.63;;
76608;SDS011;65928;53.936;27.540;2024-02-15T04:38:48;10.15;;;5.38;;
76608;SDS011;65928;53.936;27.540;2024-02-15T04:41:15;6.22;;;3.78;;
76608;SDS011;65928;53.936;27.540;2024-02-15T04:43:45;5.40;;;3.10;;
76608;SDS011;65928;53.936;27.540;2024-02-15T04:46:11;6.75;;;3.92;;
76608;SDS011;65928;53.936;27.540;2024-02-15T04:48:39;6.90;;;3.60;;
76608;SDS011;65928;53.936;27.540;2024-02-15T04:51:06;5.90;;;4.10;;
76608;SDS011;65928;53.936;27.540;2024-02-15T04:53:32;6.93;;;4.63;;
76608;SDS011;65928;53.936;27.540;2024-02-15T04:55:57;9.15;;;5.07;;
76608;SDS011;65928;53.936;27.540;2024-02-15T04:58:26;9.57;;;5.47;;
76608;SDS011;65928;53.936;27.540;2024-02-15T05:00:53;7.30;;;4.85;;
76608;SDS011;65928;53.936;27.540;2024-02-15T05:03:23;8.98;;;5.70;;
76608;SDS011;65928;53.936;27.540;2024-02-15T05:05:49;9.93;;;6.55;;
76608;SDS011;65928;53.936;27.540;2024-02-15T05:08:15;9.40;;;5.90;;
76608;SDS011;65928;53.936;27.540;2024-02-15T05:10:40;8.30;;;5.28;;
76608;SDS011;65928;53.936;27.540;2024-02-15T05:13:06;9.07;;;5.43;;
76608;SDS011;65928;53.936;27.540;2024-02-15T05:15:31;7.70;;;4.93;;
76608;SDS011;65928;53.936;27.540;2024-02-15T05:17:58;9.60;;;5.70;;
76608;SDS011;65928;53.936;27.540;2024-02-15T05:20:23;7.40;;;5.38;;
76608;SDS011;65928;53.936;27.540;2024-02-15T05:22:52;13.20;;;7.93;;
76608;SDS011;65928;53.936;27.540;2024-02-15T05:25:20;10.70;;;7.40;;
76608;SDS011;65928;53.936;27.540;2024-02-15T05:27:47;9.52;;;6.03;;
76608;SDS011;65928;53.936;27.540;2024-02-15T05:30:13;8.63;;;5.97;;
76608;SDS011;65928;53.936;27.540;2024-02-15T05:32:40;9.60;;;5.75;;
76608;SDS011;65928;53.936;27.540;2024-02-15T05:35:10;9.60;;;5.70;;
76608;SDS011;65928;53.936;27.540;2024-02-15T05:37:36;8.30;;;4.90;;
76608;SDS011;65928;53.936;27.540;2024-02-15T05:40:02;8.82;;;5.35;;
76608;SDS011;65928;53.936;27.540;2024-02-15T05:42:27;8.88;;;5.65;;
76608;SDS011;65928;53.936;27.540;2024-02-15T05:44:53;7.93;;;4.95;;
76608;SDS011;65928;53.936;27.540;2024-02-15T05:47:18;6.75;;;4.55;;
76608;SDS011;65928;53.936;27.540;2024-02-15T05:49:44;7.82;;;5.25;;
76608;SDS011;65928;53.936;27.540;2024-02-15T05:52:12;9.68;;;6.97;;
76608;SDS011;65928;53.936;27.540;2024-02-15T05:54:37;6.90;;;4.65;;
76608;SDS011;65928;53.936;27.540;2024-02-15T05:57:04;7.65;;;5.28;;
76608;SDS011;65928;53.936;27.540;2024-02-15T05:59:30;8.25;;;5.97;;
76608;SDS011;65928;53.936;27.540;2024-02-15T06:01:55;6.88;;;5.05;;
76608;SDS011;65928;53.936;27.540;2024-02-15T06:04:21;7.60;;;5.07;;
76608;SDS011;65928;53.936;27.540;2024-02-15T06:06:48;8.10;;;5.97;;
76608;SDS011;65928;53.936;27.540;2024-02-15T06:09:15;8.90;;;6.25;;
76608;SDS011;65928;53.936;27.540;2024-02-15T06:11:41;8.88;;;6.50;;
76608;SDS011;65928;53.936;27.540;2024-02-15T06:14:06;8.02;;;6.07;;
76608;SDS011;65928;53.936;27.540;2024-02-15T06:16:31;8.30;;;5.38;;
76608;SDS011;65928;53.936;27.540;2024-02-15T06:18:57;8.07;;;6.80;;
76608;SDS011;65928;53.936;27.540;2024-02-15T06:21:24;9.98;;;6.72;;
76608;SDS011;65928;53.936;27.540;2024-02-15T06:23:49;10.02;;;7.13;;
76608;SDS011;65928;53.936;27.540;2024-02-15T06:26:16;11.05;;;7.60;;
76608;SDS011;65928;53.936;27.540;2024-02-15T06:28:42;11.40;;;6.95;;
76608;SDS011;65928;53.936;27.540;2024-02-15T06:31:25;8.80;;;5.85;;
76608;SDS011;65928;53.936;27.540;2024-02-15T06:34:09;10.20;;;7.15;;
76608;SDS011;65928;53.936;27.540;2024-02-15T06:36:55;7.85;;;6.10;;
76608;SDS011;65928;53.936;27.540;2024-02-15T06:39:39;11.15;;;7.88;;
76608;SDS011;65928;53.936;27.540;2024-02-15T06:42:13;10.32;;;8.38;;
76608;SDS011;65928;53.936;27.540;2024-02-15T06:44:44;9.18;;;7.70;;
76608;SDS011;65928;53.936;27.540;2024-02-15T06:47:11;10.32;;;5.88;;
76608;SDS011;65928;53.936;27.540;2024-02-15T06:49:38;9.32;;;6.47;;
76608;SDS011;65928;53.936;27.540;2024-02-15T06:52:08;7.60;;;5.82;;
76608;SDS011;65928;53.936;27.540;2024-02-15T06:54:34;4.65;;;3.40;;
76608;SDS011;65928;53.936;27.540;2024-02-15T06:57:03;7.63;;;5.15;;
76608;SDS011;65928;53.936;27.540;2024-02-15T06:59:29;7.35;;;5.15;;
76608;SDS011;65928;53.936;27.540;2024-02-15T07:01:56;11.23;;;7.43;;
76608;SDS011;65928;53.936;27.540;2024-02-15T07:04:22;9.52;;;6.55;;
76608;SDS011;65928;53.936;27.540;2024-02-15T07:06:50;9.10;;;6.53;;
76608;SDS011;65928;53.936;27.540;2024-02-15T07:09:17;6.38;;;4.95;;
76608;SDS011;65928;53.936;27.540;2024-02-15T07:11:45;8.68;;;5.43;;
76608;SDS011;65928;53.936;27.540;2024-02-15T07:14:13;9.45;;;6.60;;
76608;SDS011;65928;53.936;27.540;2024-02-15T07:16:43;8.07;;;6.47;;
76608;SDS011;65928;53.936;27.540;2024-02-15T07:19:09;10.25;;;7.78;;
76608;SDS011;65928;53.936;27.540;2024-02-15T07:21:34;9.75;;;7.05;;
76608;SDS011;65928;53.936;27.540;2024-02-15T07:24:01;9.13;;;5.47;;
76608;SDS011;65928;53.936;27.540;2024-02-15T07:26:26;5.88;;;4.22;;
76608;SDS011;65928;53.936;27.540;2024-02-15T07:28:53;5.88;;;4.95;;
76608;SDS011;65928;53.936;27.540;2024-02-15T07:31:19;5.47;;;4.47;;
76608;SDS011;65928;53.936;27.540;2024-02-15T07:33:48;6.88;;;5.72;;
76608;SDS011;65928;53.936;27.540;2024-02-15T07:36:22;6.78;;;4.68;;
76608;SDS011;65928;53.936;27.540;2024-02-15T07:38:48;7.40;;;4.53;;
76608;SDS011;65928;53.936;27.540;2024-02-15T07:41:18;6.93;;;5.03;;
76608;SDS011;65928;53.936;27.540;2024-02-15T07:43:51;11.38;;;7.53;;
76608;SDS011;65928;53.936;27.540;2024-02-15T07:46:19;9.37;;;5.97;;
76608;SDS011;65928;53.936;27.540;2024-02-15T07:48:45;12.60;;;7.72;;
76608;SDS011;65928;53.936;27.540;2024-02-15T07:51:21;10.05;;;6.53;;
76608;SDS011;65928;53.936;27.540;2024-02-15T07:53:47;8.80;;;6.38;;
76608;SDS011;65928;53.936;27.540;2024-02-15T07:56:14;12.02;;;8.30;;
76608;SDS011;65928;53.936;27.540;2024-02-15T07:58:44;12.73;;;8.05;;
76608;SDS011;65928;53.936;27.540;2024-02-15T08:01:12;14.18;;;9.10;;
76608;SDS011;65928;53.936;27.540;2024-02-15T08:03:41;15.43;;;9.15;;
76608;SDS011;65928;53.936;27.540;2024-02-15T08:06:10;9.60;;;7.15;;
76608;SDS011;65928;53.936;27.540;2024-02-15T08:08:37;8.60;;;6.10;;
76608;SDS011;65928;53.936;27.540;2024-02-15T08:11:11;6.95;;;4.63;;
76608;SDS011;65928;53.936;27.540;2024-02-15T08:13:45;6.70;;;4.22;;
76608;SDS011;65928;53.936;27.540;2024-02-15T08:16:13;4.38;;;3.45;;
76608;SDS011;65928;53.936;27.540;2024-02-15T08:18:41;6.90;;;4.72;;
76608;SDS011;65928;53.936;27.540;2024-02-15T08:21:06;6.68;;;3.58;;
76608;SDS011;65928;53.936;27.540;2024-02-15T08:23:31;6.97;;;3.90;;
76608;SDS011;65928;53.936;27.540;2024-02-15T08:25:57;4.28;;;2.83;;
76608;SDS011;65928;53.936;27.540;2024-02-15T08:28:23;6.70;;;3.58;;
76608;SDS011;65928;53.936;27.540;2024-02-15T08:30:48;6.10;;;4.50;;
76608;SDS011;65928;53.936;27.540;2024-02-15T08:33:13;6.10;;;4.53;;
76608;SDS011;65928;53.936;27.540;2024-02-15T08:35:39;7.40;;;5.00;;
76608;SDS011;65928;53.936;27.540;2024-02-15T08:38:06;8.13;;;5.15;;
76608;SDS011;65928;53.936;27.540;2024-02-15T08:40:32;7.63;;;5.57;;
76608;SDS011;65928;53.936;27.540;2024-02-15T08:42:57;7.78;;;5.32;;
76608;SDS011;65928;53.936;27.540;2024-02-15T08:45:23;5.70;;;4.03;;
76608;SDS011;65928;53.936;27.540;2024-02-15T08:47:48;5.88;;;3.80;;
76608;SDS011;65928;53.936;27.540;2024-02-15T08:50:17;6.10;;;4.07;;
76608;SDS011;65928;53.936;27.540;2024-02-15T08:52:43;4.88;;;3.45;;
76608;SDS011;65928;53.936;27.540;2024-02-15T08:55:09;4.10;;;3.28;;
76608;SDS011;65928;53.936;27.540;2024-02-15T08:57:36;4.97;;;3.20;;
76608;SDS011;65928;53.936;27.540;2024-02-15T09:00:03;5.38;;;4.28;;
76608;SDS011;65928;53.936;27.540;2024-02-15T09:02:44;5.50;;;3.90;;
76608;SDS011;65928;53.936;27.540;2024-02-15T09:05:12;8.05;;;5.25;;
76608;SDS011;65928;53.936;27.540;2024-02-15T09:07:42;8.10;;;5.80;;
76608;SDS011;65928;53.936;27.540;2024-02-15T09:10:08;8.15;;;5.63;;
76608;SDS011;65928;53.936;27.540;2024-02-15T09:12:35;6.28;;;4.97;;
76608;SDS011;65928;53.936;27.540;2024-02-15T09:15:03;6.00;;;4.25;;
76608;SDS011;65928;53.936;27.540;2024-02-15T09:17:29;6.32;;;4.85;;
76608;SDS011;65928;53.936;27.540;2024-02-15T09:19:57;6.80;;;4.70;;
76608;SDS011;65928;53.936;27.540;2024-02-15T09:22:23;7.95;;;4.90;;
76608;SDS011;65928;53.936;27.540;2024-02-15T09:24:48;6.55;;;4.93;;
76608;SDS011;65928;53.936;27.540;2024-02-15T09:27:13;4.75;;;4.20;;
76608;SDS011;65928;53.936;27.540;2024-02-15T09:29:39;6.63;;;4.82;;
76608;SDS011;65928;53.936;27.540;2024-02-15T09:32:05;10.85;;;6.18;;
76608;SDS011;65928;53.936;27.540;2024-02-15T09:34:31;7.57;;;5.72;;
76608;SDS011;65928;53.936;27.540;2024-02-15T09:36:58;8.55;;;6.18;;
76608;SDS011;65928;53.936;27.540;2024-02-15T09:39:23;7.82;;;6.20;;
76608;SDS011;65928;53.936;27.540;2024-02-15T09:41:49;8.63;;;5.95;;
76608;SDS011;65928;53.936;27.540;2024-02-15T09:44:23;8.02;;;5.80;;
76608;SDS011;65928;53.936;27.540;2024-02-15T09:46:52;7.10;;;6.30;;
76608;SDS011;65928;53.936;27.540;2024-02-15T09:49:28;6.80;;;5.20;;
76608;SDS011;65928;53.936;27.540;2024-02-15T09:51:54;7.53;;;4.38;;
76608;SDS011;65928;53.936;27.540;2024-02-15T09:54:20;9.18;;;4.68;;
76608;SDS011;65928;53.936;27.540;2024-02-15T09:56:48;6.18;;;3.95;;
76608;SDS011;65928;53.936;27.540;2024-02-15T09:59:15;5.72;;;4.72;;
76608;SDS011;65928;53.936;27.540;2024-02-15T10:01:41;6.97;;;5.18;;
76608;SDS011;65928;53.936;27.540;2024-02-15T10:04:07;6.10;;;4.82;;
76608;SDS011;65928;53.936;27.540;2024-02-15T10:06:32;7.70;;;5.03;;
76608;SDS011;65928;53.936;27.540;2024-02-15T10:09:22;7.10;;;4.50;;
76608;SDS011;65928;53.936;27.540;2024-02-15T10:12:02;4.70;;;3.63;;
76608;SDS011;65928;53.936;27.540;2024-02-15T10:14:29;6.28;;;4.43;;
76608;SDS011;65928;53.936;27.540;2024-02-15T10:16:54;11.38;;;5.18;;
76608;SDS011;65928;53.936;27.540;2024-02-15T10:19:21;5.85;;;4.35;;
76608;SDS011;65928;53.936;27.540;2024-02-15T10:21:53;4.45;;;3.55;;
76608;SDS011;65928;53.936;27.540;2024-02-15T10:24:20;5.95;;;4.70;;
76608;SDS011;65928;53.936;27.540;2024-02-15T10:26:48;6.25;;;4.13;;
76608;SDS011;65928;53.936;27.540;2024-02-15T10:29:14;5.72;;;4.18;;
76608;SDS011;65928;53.936;27.540;2024-02-15T10:31:52;5.70;;;3.80;;
76608;SDS011;65928;53.936;27.540;2024-02-15T10:34:21;4.25;;;3.42;;
76608;SDS011;65928;53.936;27.540;2024-02-15T10:36:48;7.22;;;4.68;;
76608;SDS011;65928;53.936;27.540;2024-02-15T10:39:20;7.10;;;4.22;;
76608;SDS011;65928;53.936;27.540;2024-02-15T10:41:50;6.85;;;4.13;;
76608;SDS011;65928;53.936;27.540;2024-02-15T10:44:16;5.80;;;3.20;;
76608;SDS011;65928;53.936;27.540;2024-02-15T10:46:46;5.93;;;3.90;;
76608;SDS011;65928;53.936;27.540;2024-02-15T10:49:16;5.88;;;5.10;;
76608;SDS011;65928;53.936;27.540;2024-02-15T10:51:43;6.50;;;4.47;;
76608;SDS011;65928;53.936;27.540;2024-02-15T10:54:09;6.53;;;4.65;;
76608;SDS011;65928;53.936;27.540;2024-02-15T10:56:41;5.97;;;4.32;;
76608;SDS011;65928;53.936;27.540;2024-02-15T10:59:16;7.95;;;5.50;;
76608;SDS011;65928;53.936;27.540;2024-02-15T11:01:42;7.50;;;5.50;;
76608;SDS011;65928;53.936;27.540;2024-02-15T11:04:08;7.97;;;5.50;;
76608;SDS011;65928;53.936;27.540;2024-02-15T11:06:35;7.82;;;5.18;;
76608;SDS011;65928;53.936;27.540;2024-02-15T11:09:00;7.90;;;4.60;;
76608;SDS011;65928;53.936;27.540;2024-02-15T11:11:28;7.10;;;4.07;;
76608;SDS011;65928;53.936;27.540;2024-02-15T11:14:29;6.32;;;4.70;;
76608;SDS011;65928;53.936;27.540;2024-02-15T11:17:00;7.05;;;5.00;;
76608;SDS011;65928;53.936;27.540;2024-02-15T11:22:02;6.43;;;4.07;;
76608;SDS011;65928;53.936;27.540;2024-02-15T11:24:35;5.53;;;4.18;;
76608;SDS011;65928;53.936;27.540;2024-02-15T11:27:02;6.60;;;3.63;;
76608;SDS011;65928;53.936;27.540;2024-02-15T11:32:36;11.68;;;7.93;;
76608;SDS011;65928;53.936;27.540;2024-02-15T11:42:57;7.30;;;5.00;;
76608;SDS011;65928;53.936;27.540;2024-02-15T11:45:26;6.53;;;4.22;;
76608;SDS011;65928;53.936;27.540;2024-02-15T11:47:58;6.23;;;4.30;;
76608;SDS011;65928;53.936;27.540;2024-02-15T11:50:23;6.07;;;4.85;;
76608;SDS011;65928;53.936;27.540;2024-02-15T11:52:50;6.35;;;4.70;;
76608;SDS011;65928;53.936;27.540;2024-02-15T11:55:20;7.10;;;4.55;;
76608;SDS011;65928;53.936;27.540;2024-02-15T11:57:59;5.75;;;4.60;;
76608;SDS011;65928;53.936;27.540;2024-02-15T12:03:14;7.95;;;5.22;;
76608;SDS011;65928;53.936;27.540;2024-02-15T12:05:58;7.75;;;5.75;;
76608;SDS011;65928;53.936;27.540;2024-02-15T12:08:45;7.93;;;5.20;;
76608;SDS011;65928;53.936;27.540;2024-02-15T12:11:30;7.65;;;5.55;;
76608;SDS011;65928;53.936;27.540;2024-02-15T12:14:15;9.50;;;5.95;;
76608;SDS011;65928;53.936;27.540;2024-02-15T12:17:03;7.63;;;6.00;;
76608;SDS011;65928;53.936;27.540;2024-02-15T12:19:49;9.70;;;6.25;;
76608;SDS011;65928;53.936;27.540;2024-02-15T12:22:42;6.35;;;5.50;;
76608;SDS011;65928;53.936;27.540;2024-02-15T12:25:07;7.22;;;5.18;;
76608;SDS011;65928;53.936;27.540;2024-02-15T12:27:42;6.78;;;5.05;;
76608;SDS011;65928;53.936;27.540;2024-02-15T12:30:15;7.97;;;5.60;;
76608;SDS011;65928;53.936;27.540;2024-02-15T12:32:50;7.75;;;5.78;;
76608;SDS011;65928;53.936;27.540;2024-02-15T12:35:19;7.80;;;5.70;;
76608;SDS011;65928;53.936;27.540;2024-02-15T12:37:49;7.75;;;6.00;;
76608;SDS011;65928;53.936;27.540;2024-02-15T12:40:37;6.78;;;5.35;;
76608;SDS011;65928;53.936;27.540;2024-02-15T12:43:06;6.38;;;4.80;;
76608;SDS011;65928;53.936;27.540;2024-02-15T12:45:35;7.20;;;5.40;;
76608;SDS011;65928;53.936;27.540;2024-02-15T12:48:02;7.50;;;5.05;;
76608;SDS011;65928;53.936;27.540;2024-02-15T12:50:29;8.00;;;5.25;;
76608;SDS011;65928;53.936;27.540;2024-02-15T12:52:55;8.20;;;5.35;;
76608;SDS011;65928;53.936;27.540;2024-02-15T12:57:55;9.95;;;7.53;;
76608;SDS011;65928;53.936;27.540;2024-02-15T13:00:26;7.55;;;6.03;;
76608;SDS011;65928;53.936;27.540;2024-02-15T13:02:57;8.75;;;6.75;;
76608;SDS011;65928;53.936;27.540;2024-02-15T13:05:24;8.07;;;6.40;;
76608;SDS011;65928;53.936;27.540;2024-02-15T13:07:51;9.25;;;5.97;;
76608;SDS011;65928;53.936;27.540;2024-02-15T13:10:20;8.25;;;5.63;;
76608;SDS011;65928;53.936;27.540;2024-02-15T13:12:46;7.40;;;5.80;;
76608;SDS011;65928;53.936;27.540;2024-02-15T13:15:12;7.63;;;5.57;;
76608;SDS011;65928;53.936;27.540;2024-02-15T13:17:52;6.57;;;5.03;;
76608;SDS011;65928;53.936;27.540;2024-02-15T13:20:21;6.95;;;4.95;;
76608;SDS011;65928;53.936;27.540;2024-02-15T13:23:03;7.60;;;5.25;;
76608;SDS011;65928;53.936;27.540;2024-02-15T13:25:33;7.43;;;5.65;;
76608;SDS011;65928;53.936;27.540;2024-02-15T13:28:01;8.35;;;6.13;;
76608;SDS011;65928;53.936;27.540;2024-02-15T13:30:27;8.50;;;6.13;;
76608;SDS011;65928;53.936;27.540;2024-02-15T13:32:53;7.13;;;5.57;;
76608;SDS011;65928;53.936;27.540;2024-02-15T13:35:21;7.63;;;5.88;;
76608;SDS011;65928;53.936;27.540;2024-02-15T13:37:51;8.25;;;6.22;;
76608;SDS011;65928;53.936;27.540;2024-02-15T13:40:18;8.27;;;6.28;;
76608;SDS011;65928;53.936;27.540;2024-02-15T13:42:51;9.32;;;6.00;;
76608;SDS011;65928;53.936;27.540;2024-02-15T13:47:45;9.20;;;6.13;;
76608;SDS011;65928;53.936;27.540;2024-02-15T13:50:14;9.13;;;6.60;;
76608;SDS011;65928;53.936;27.540;2024-02-15T13:52:48;8.00;;;6.50;;
76608;SDS011;65928;53.936;27.540;2024-02-15T13:55:16;8.52;;;6.00;;
76608;SDS011;65928;53.936;27.540;2024-02-15T13:57:46;8.02;;;6.00;;
76608;SDS011;65928;53.936;27.540;2024-02-15T14:00:12;9.63;;;5.97;;
76608;SDS011;65928;53.936;27.540;2024-02-15T14:05:13;7.45;;;5.40;;
76608;SDS011;65928;53.936;27.540;2024-02-15T14:07:39;8.25;;;5.57;;
76608;SDS011;65928;53.936;27.540;2024-02-15T14:10:05;9.23;;;5.95;;
76608;SDS011;65928;53.936;27.540;2024-02-15T14:12:31;7.22;;;5.47;;
76608;SDS011;65928;53.936;27.540;2024-02-15T14:14:56;9.88;;;5.55;;
76608;SDS011;65928;53.936;27.540;2024-02-15T14:17:22;7.60;;;4.57;;
76608;SDS011;65928;53.936;27.540;2024-02-15T14:19:48;6.47;;;4.95;;
76608;SDS011;65928;53.936;27.540;2024-02-15T14:22:14;6.70;;;5.63;;
76608;SDS011;65928;53.936;27.540;2024-02-15T14:24:44;8.73;;;5.93;;
76608;SDS011;65928;53.936;27.540;2024-02-15T14:27:10;7.50;;;5.20;;
76608;SDS011;65928;53.936;27.540;2024-02-15T14:29:36;8.15;;;5.30;;
76608;SDS011;65928;53.936;27.540;2024-02-15T14:32:09;7.45;;;5.13;;
76608;SDS011;65928;53.936;27.540;2024-02-15T14:34:56;8.43;;;6.95;;
76608;SDS011;65928;53.936;27.540;2024-02-15T14:37:22;12.93;;;6.80;;
76608;SDS011;65928;53.936;27.540;2024-02-15T14:39:49;8.05;;;6.40;;
76608;SDS011;65928;53.936;27.540;2024-02-15T14:42:14;9.00;;;6.22;;
76608;SDS011;65928;53.936;27.540;2024-02-15T14:44:39;7.82;;;5.95;;
76608;SDS011;65928;53.936;27.540;2024-02-15T14:47:05;8.40;;;6.55;;
76608;SDS011;65928;53.936;27.540;2024-02-15T14:49:32;11.10;;;7.70;;
76608;SDS011;65928;53.936;27.540;2024-02-15T14:51:57;8.00;;;5.93;;
76608;SDS011;65928;53.936;27.540;2024-02-15T14:54:23;9.05;;;6.15;;
76608;SDS011;65928;53.936;27.540;2024-02-15T14:56:48;8.15;;;5.88;;
76608;SDS011;65928;53.936;27.540;2024-02-15T14:59:13;7.47;;;6.05;;
76608;SDS011;65928;53.936;27.540;2024-02-15T15:01:41;6.82;;;5.93;;